Main page
METAR-TAF:

METAR-TAF

Airports :

Hihifo Airport

Wallis, France

latitude: 13-14S, longitude: 176-10W, elevation: 23 m

METAR: missing

Time: 06:15 (18:15 UTC)

Forecast

The report was made 1 hour and 15 minutes ago, at 17:00 UTC
Forecast valid from 20 at 18 UTC to 21 at 18 UTC
Wind 10 kt from the East/Southeast
Visibility 10 km or more
Scattered clouds at a height of 2600 ft
Scattered clouds at a height of 5000 ft
Temporary
from 20 at 18 UTC to 21 at 18 UTC
Visibility: 4000 m
Broken clouds at a height of 1000 ft
Few clouds at a height of 1800 ft, Cumulonimbus.
rain showers
Probability 40% :
Temporary
from 21 at 00 UTC to 21 at 12 UTC
Visibility: 2000 m
Broken clouds at a height of 800 ft
Few clouds at a height of 1800 ft, Cumulonimbus.
thunderstorm, rain

TAF: NLWW 201700Z 2018/2118 11010KT 9999 SCT026 SCT050 TEMPO 2018/2118 4000 SHRA BKN010 FEW018CB PROB40 TEMPO 2100/2112 2000 TSRA BKN008 FEW018CB

Weather observations and forecasts of more than 4000 airports (METAR and TAF reports).

The available stations are represented by yellow and red dots on the map.

Hover mouse over dot to see the name of the station.

Then click to see weather observations and forecasts.

To change the map : click on the green buttons with a black cross to zoom in, on the green button with a dash to zoom out, or on the green arrows for adjacent maps.


METAR-TAF: